createdAt,value
2023-01-29T09:00:11.839Z,101441.91
2023-01-29T09:03:14.683Z,101433.56
2023-01-29T09:06:17.584Z,101436.28
2023-01-29T09:09:20.181Z,101429.34
2023-01-29T09:12:23.665Z,101428.50
2023-01-29T09:15:26.239Z,101442.56
2023-01-29T09:18:30.499Z,101434.72
2023-01-29T09:21:32.990Z,101421.06
2023-01-29T09:24:38.040Z,101429.03
2023-01-29T09:27:40.575Z,101414.41
2023-01-29T09:30:43.853Z,101403.84
2023-01-29T09:33:46.979Z,101403.69
2023-01-29T09:36:49.748Z,101407.84
2023-01-29T09:39:52.436Z,101414.22
2023-01-29T09:43:17.303Z,101403.59
2023-01-29T09:46:46.982Z,101413.16
2023-01-29T09:50:20.454Z,101395.19
2023-01-29T09:53:30.869Z,101406.88
2023-01-29T09:56:34.111Z,101397.00
2023-01-29T09:59:36.668Z,101394.69
2023-01-29T10:03:37.266Z,101394.56
2023-01-29T10:07:16.492Z,101380.41
2023-01-29T12:38:56.842Z,101192.88
2023-01-29T12:42:05.033Z,101192.75
2023-01-29T12:45:11.290Z,101186.09
2023-01-29T12:48:24.226Z,101190.56
2023-01-29T12:51:32.221Z,101179.81
2023-01-29T12:55:03.466Z,101198.66
2023-01-29T13:12:59.519Z,101199.94
2023-01-29T13:16:06.369Z,101182.31
2023-01-29T13:19:24.297Z,101202.25
2023-01-29T13:22:33.008Z,101184.09
2023-01-29T13:36:33.500Z,101154.66
2023-01-29T13:50:20.421Z,101149.78
2023-01-29T13:53:27.792Z,101154.06
2023-01-29T13:56:33.584Z,101174.38
2023-01-29T14:00:02.788Z,101166.31
2023-01-29T14:03:09.391Z,101175.25
2023-01-29T14:06:13.037Z,101189.69
2023-01-29T14:09:36.123Z,101183.19
2023-01-29T14:12:40.848Z,101193.66
2023-01-29T14:15:59.976Z,101192.78
2023-01-29T14:19:04.139Z,101174.00
2023-01-29T14:22:07.966Z,101162.44
2023-01-29T14:25:19.280Z,101154.13
2023-01-29T14:40:10.667Z,101136.72
2023-01-29T14:54:34.836Z,101146.22
2023-01-29T14:57:40.711Z,101150.00
2023-01-29T15:00:48.812Z,101143.88
2023-01-29T15:04:04.208Z,101139.84
2023-01-29T15:07:09.777Z,101117.16
2023-01-29T15:11:23.945Z,101115.38
2023-01-29T15:14:36.950Z,101111.09
2023-01-29T15:17:50.978Z,101109.88
2023-01-29T15:21:12.419Z,101114.97
2023-01-29T15:24:15.324Z,101090.53
2023-01-29T15:27:21.863Z,101095.88
2023-01-29T15:30:32.399Z,101086.00
2023-01-29T15:33:41.501Z,101085.25
2023-01-29T15:36:44.687Z,101086.28
2023-01-29T16:03:11.623Z,101078.44
2023-01-29T16:06:16.108Z,101089.75
2023-01-29T16:09:24.279Z,101096.06
2023-01-29T16:12:28.875Z,101100.63
2023-01-29T16:15:42.746Z,101089.31
2023-01-29T16:18:59.933Z,101096.38
2023-01-29T16:22:06.671Z,101091.00
2023-01-29T16:25:16.549Z,101096.59
2023-01-29T16:28:20.595Z,101105.03
2023-01-29T16:31:29.556Z,101097.41
2023-01-29T16:34:37.019Z,101107.25
2023-01-29T16:37:40.793Z,101089.91
2023-01-29T16:41:08.787Z,101099.25
2023-01-29T16:44:16.905Z,101088.25
2023-01-29T17:29:32.740Z,101043.03
2023-01-29T17:32:47.239Z,101035.53
2023-01-29T17:35:52.719Z,101029.25
2023-01-29T17:39:19.483Z,101023.56
2023-01-29T17:42:23.708Z,101004.00
2023-01-29T18:02:30.515Z,100968.28
2023-01-29T18:21:56.010Z,100953.63
2023-01-29T18:25:00.791Z,100937.00
2023-01-29T18:28:05.098Z,100954.66
2023-01-29T18:31:10.142Z,100955.53
2023-01-29T18:34:14.495Z,100950.41
2023-01-29T18:37:22.021Z,100946.94
2023-01-29T18:40:29.340Z,100949.72
2023-01-29T18:43:34.523Z,100948.81
2023-01-29T18:46:39.529Z,100917.84
2023-01-29T18:49:46.010Z,100915.22
2023-01-29T18:52:51.607Z,100942.88
2023-01-29T18:56:03.211Z,100936.53
2023-01-29T18:59:08.479Z,100916.88
2023-01-29T19:02:20.482Z,100924.44
2023-01-29T19:05:28.625Z,100938.13
2023-01-29T19:08:32.529Z,100933.69
2023-01-29T19:11:37.390Z,100926.78
2023-01-29T19:14:42.030Z,100942.69
2023-01-29T19:17:46.248Z,100930.28
2023-01-29T19:20:51.117Z,100927.75
2023-01-29T21:43:50.355Z,100742.78
2023-01-29T21:47:20.259Z,100733.34
2023-01-29T21:50:24.006Z,100723.88
2023-01-29T21:53:27.716Z,100696.72
2023-01-29T21:56:30.402Z,100700.38
2023-01-29T21:59:33.651Z,100697.84
2023-01-29T22:02:36.242Z,100688.44
2023-01-29T22:05:39.783Z,100697.56
2023-01-29T22:08:42.304Z,100691.31
2023-01-29T22:11:45.369Z,100672.75
2023-01-29T22:14:47.968Z,100670.19
2023-01-29T22:17:50.774Z,100667.38
2023-01-29T22:20:54.386Z,100661.44
2023-01-29T22:23:57.258Z,100649.16
2023-01-29T22:26:59.715Z,100628.97
2023-01-29T22:30:02.729Z,100644.03
2023-01-29T22:33:05.255Z,100636.22
2023-01-29T22:36:09.572Z,100625.47
2023-01-29T22:39:12.205Z,100622.91
2023-01-29T22:42:15.166Z,100591.56
2023-01-29T22:45:17.713Z,100599.53
2023-01-29T22:48:20.499Z,100587.34
2023-01-29T22:51:23.524Z,100578.59
2023-01-29T22:54:26.357Z,100580.16
2023-01-29T22:57:31.336Z,100560.09
2023-01-29T23:00:34.068Z,100560.09
2023-01-29T23:03:37.167Z,100559.56
2023-01-29T23:06:39.987Z,100547.13
2023-01-29T23:09:42.347Z,100538.66
2023-01-29T23:12:45.239Z,100529.97
2023-01-29T23:15:58.370Z,100530.81
2023-01-29T23:19:01.234Z,100524.81
2023-01-29T23:22:03.821Z,100536.16
2023-01-29T23:25:07.019Z,100524.69
2023-01-29T23:28:09.467Z,100523.19
2023-01-29T23:31:12.408Z,100520.63
2023-01-29T23:34:15.408Z,100519.00
2023-01-29T23:37:18.277Z,100511.16
2023-01-29T23:40:20.781Z,100504.03
2023-01-29T23:43:26.889Z,100511.22
2023-01-29T23:46:29.413Z,100495.34
2023-01-29T23:49:32.370Z,100504.25
2023-01-29T23:52:34.850Z,100489.22
2023-01-29T23:55:37.726Z,100497.94
2023-01-29T23:58:40.143Z,100497.13
